sensor_id;sensor_type;location;lat;lon;timestamp;temperature;humidity
79491;SHT31;73788;53.048;18.472;2024-02-14T00:00:10;-1.52;79.00
79491;SHT31;73788;53.048;18.472;2024-02-14T00:03:02;-1.53;79.00
79491;SHT31;73788;53.048;18.472;2024-02-14T00:05:29;-1.58;79.00
79491;SHT31;73788;53.048;18.472;2024-02-14T00:07:56;-1.62;79.04
79491;SHT31;73788;53.048;18.472;2024-02-14T00:10:23;-1.65;79.10
79491;SHT31;73788;53.048;18.472;2024-02-14T00:12:50;-1.67;79.10
79491;SHT31;73788;53.048;18.472;2024-02-14T00:15:18;-1.69;79.10
79491;SHT31;73788;53.048;18.472;2024-02-14T00:17:45;-1.69;79.16
79491;SHT31;73788;53.048;18.472;2024-02-14T00:20:12;-1.71;79.20
79491;SHT31;73788;53.048;18.472;2024-02-14T00:22:40;-1.74;79.20
79491;SHT31;73788;53.048;18.472;2024-02-14T00:25:07;-1.73;79.22
79491;SHT31;73788;53.048;18.472;2024-02-14T00:27:35;-1.74;79.25
79491;SHT31;73788;53.048;18.472;2024-02-14T00:30:03;-1.74;79.29
79491;SHT31;73788;53.048;18.472;2024-02-14T00:32:31;-1.72;79.30
79491;SHT31;73788;53.048;18.472;2024-02-14T00:34:58;-1.72;79.37
79491;SHT31;73788;53.048;18.472;2024-02-14T00:37:25;-1.75;79.39
79491;SHT31;73788;53.048;18.472;2024-02-14T00:39:52;-1.76;79.40
79491;SHT31;73788;53.048;18.472;2024-02-14T00:42:20;-1.78;79.41
79491;SHT31;73788;53.048;18.472;2024-02-14T00:44:47;-1.79;79.44
79491;SHT31;73788;53.048;18.472;2024-02-14T00:47:14;-1.80;79.49
79491;SHT31;73788;53.048;18.472;2024-02-14T00:52:49;-1.86;79.51
79491;SHT31;73788;53.048;18.472;2024-02-14T00:55:16;-1.88;79.60
79491;SHT31;73788;53.048;18.472;2024-02-14T00:57:43;-1.87;79.60
79491;SHT31;73788;53.048;18.472;2024-02-14T01:00:10;-1.87;79.61
79491;SHT31;73788;53.048;18.472;2024-02-14T01:02:37;-1.88;79.63
79491;SHT31;73788;53.048;18.472;2024-02-14T01:05:05;-1.88;79.69
79491;SHT31;73788;53.048;18.472;2024-02-14T01:07:32;-1.90;79.70
79491;SHT31;73788;53.048;18.472;2024-02-14T01:10:00;-1.89;79.72
79491;SHT31;73788;53.048;18.472;2024-02-14T01:12:27;-1.88;79.78
79491;SHT31;73788;53.048;18.472;2024-02-14T01:14:56;-1.88;79.79
79491;SHT31;73788;53.048;18.472;2024-02-14T01:17:23;-1.88;79.80
79491;SHT31;73788;53.048;18.472;2024-02-14T01:19:51;-1.80;79.81
79491;SHT31;73788;53.048;18.472;2024-02-14T01:22:18;-1.75;79.89
79491;SHT31;73788;53.048;18.472;2024-02-14T01:24:45;-1.69;79.89
79491;SHT31;73788;53.048;18.472;2024-02-14T01:27:12;-1.66;79.90
79491;SHT31;73788;53.048;18.472;2024-02-14T01:29:39;-1.62;79.96
79491;SHT31;73788;53.048;18.472;2024-02-14T01:32:06;-1.60;79.98
79491;SHT31;73788;53.048;18.472;2024-02-14T01:34:33;-1.56;80.00
79491;SHT31;73788;53.048;18.472;2024-02-14T01:37:00;-1.52;80.03
79491;SHT31;73788;53.048;18.472;2024-02-14T01:39:28;-1.49;80.08
79491;SHT31;73788;53.048;18.472;2024-02-14T01:41:55;-1.51;80.10
79491;SHT31;73788;53.048;18.472;2024-02-14T01:44:22;-1.51;80.10
79491;SHT31;73788;53.048;18.472;2024-02-14T01:46:49;-1.48;80.15
79491;SHT31;73788;53.048;18.472;2024-02-14T01:49:17;-1.46;80.20
79491;SHT31;73788;53.048;18.472;2024-02-14T01:51:44;-1.43;80.21
79491;SHT31;73788;53.048;18.472;2024-02-14T01:54:13;-1.43;80.23
79491;SHT31;73788;53.048;18.472;2024-02-14T01:56:42;-1.42;80.28
79491;SHT31;73788;53.048;18.472;2024-02-14T01:59:10;-1.40;80.30
79491;SHT31;73788;53.048;18.472;2024-02-14T02:01:38;-1.42;80.30
79491;SHT31;73788;53.048;18.472;2024-02-14T02:04:06;-1.43;80.35
79491;SHT31;73788;53.048;18.472;2024-02-14T02:06:34;-1.42;80.39
79491;SHT31;73788;53.048;18.472;2024-02-14T02:09:01;-1.44;80.40
79491;SHT31;73788;53.048;18.472;2024-02-14T02:11:29;-1.46;80.40
79491;SHT31;73788;53.048;18.472;2024-02-14T02:13:57;-1.49;80.42
79491;SHT31;73788;53.048;18.472;2024-02-14T02:16:24;-1.50;80.47
79491;SHT31;73788;53.048;18.472;2024-02-14T02:18:51;-1.54;80.48
79491;SHT31;73788;53.048;18.472;2024-02-14T02:21:19;-1.56;80.50
79491;SHT31;73788;53.048;18.472;2024-02-14T02:23:49;-1.57;80.51
79491;SHT31;73788;53.048;18.472;2024-02-14T02:26:16;-1.60;80.57
79491;SHT31;73788;53.048;18.472;2024-02-14T02:28:43;-1.58;80.58
79491;SHT31;73788;53.048;18.472;2024-02-14T02:31:10;-1.57;80.60
79491;SHT31;73788;53.048;18.472;2024-02-14T02:33:37;-1.56;80.60
79491;SHT31;73788;53.048;18.472;2024-02-14T02:36:05;-1.53;80.68
79491;SHT31;73788;53.048;18.472;2024-02-14T02:38:33;-1.52;80.70
79491;SHT31;73788;53.048;18.472;2024-02-14T02:41:00;-1.52;80.70
79491;SHT31;73788;53.048;18.472;2024-02-14T02:43:27;-1.52;80.70
79491;SHT31;73788;53.048;18.472;2024-02-14T02:45:55;-1.51;80.78
79491;SHT31;73788;53.048;18.472;2024-02-14T02:48:23;-1.51;80.80
79491;SHT31;73788;53.048;18.472;2024-02-14T02:50:51;-1.53;80.80
79491;SHT31;73788;53.048;18.472;2024-02-14T02:53:19;-1.54;80.80
79491;SHT31;73788;53.048;18.472;2024-02-14T02:55:47;-1.56;80.84
79491;SHT31;73788;53.048;18.472;2024-02-14T02:58:17;-1.60;80.88
79491;SHT31;73788;53.048;18.472;2024-02-14T03:00:44;-1.66;80.89
79491;SHT31;73788;53.048;18.472;2024-02-14T03:03:12;-1.69;80.90
79491;SHT31;73788;53.048;18.472;2024-02-14T03:05:39;-1.71;80.92
79491;SHT31;73788;53.048;18.472;2024-02-14T03:08:07;-1.71;80.97
79491;SHT31;73788;53.048;18.472;2024-02-14T03:10:34;-1.72;81.00
79491;SHT31;73788;53.048;18.472;2024-02-14T03:13:01;-1.76;81.00
79491;SHT31;73788;53.048;18.472;2024-02-14T03:15:29;-1.76;81.01
79491;SHT31;73788;53.048;18.472;2024-02-14T03:17:56;-1.78;81.08
79491;SHT31;73788;53.048;18.472;2024-02-14T03:20:23;-1.80;81.09
79491;SHT31;73788;53.048;18.472;2024-02-14T03:22:50;-1.83;81.10
79491;SHT31;73788;53.048;18.472;2024-02-14T03:25:18;-1.85;81.10
79491;SHT31;73788;53.048;18.472;2024-02-14T03:27:47;-1.86;81.13
79491;SHT31;73788;53.048;18.472;2024-02-14T03:30:19;-1.89;81.16
79491;SHT31;73788;53.048;18.472;2024-02-14T03:32:48;-1.91;81.20
79491;SHT31;73788;53.048;18.472;2024-02-14T03:35:16;-1.95;81.20
79491;SHT31;73788;53.048;18.472;2024-02-14T03:37:45;-1.96;81.20
79491;SHT31;73788;53.048;18.472;2024-02-14T03:40:15;-1.96;81.25
79491;SHT31;73788;53.048;18.472;2024-02-14T03:42:43;-1.99;81.29
79491;SHT31;73788;53.048;18.472;2024-02-14T03:45:10;-2.02;81.30
79491;SHT31;73788;53.048;18.472;2024-02-14T03:47:37;-2.03;81.30
79491;SHT31;73788;53.048;18.472;2024-02-14T03:50:08;-2.05;81.30
79491;SHT31;73788;53.048;18.472;2024-02-14T03:52:36;-2.04;81.38
79491;SHT31;73788;53.048;18.472;2024-02-14T03:55:03;-2.06;81.40
79491;SHT31;73788;53.048;18.472;2024-02-14T03:57:32;-2.05;81.40
79491;SHT31;73788;53.048;18.472;2024-02-14T04:00:01;-2.06;81.40
79491;SHT31;73788;53.048;18.472;2024-02-14T04:02:29;-2.05;81.41
79491;SHT31;73788;53.048;18.472;2024-02-14T04:04:56;-2.06;81.44
79491;SHT31;73788;53.048;18.472;2024-02-14T04:07:23;-2.07;81.49
79491;SHT31;73788;53.048;18.472;2024-02-14T04:09:50;-2.11;81.50
79491;SHT31;73788;53.048;18.472;2024-02-14T04:12:17;-2.13;81.50
79491;SHT31;73788;53.048;18.472;2024-02-14T04:14:45;-2.14;81.53
79491;SHT31;73788;53.048;18.472;2024-02-14T04:17:12;-2.15;81.56
79491;SHT31;73788;53.048;18.472;2024-02-14T04:19:40;-2.14;81.59
79491;SHT31;73788;53.048;18.472;2024-02-14T04:22:07;-2.15;81.60
79491;SHT31;73788;53.048;18.472;2024-02-14T04:24:35;-2.14;81.60
79491;SHT31;73788;53.048;18.472;2024-02-14T04:27:02;-2.14;81.62
79491;SHT31;73788;53.048;18.472;2024-02-14T04:29:30;-2.13;81.67
79491;SHT31;73788;53.048;18.472;2024-02-14T04:31:59;-2.15;81.70
79491;SHT31;73788;53.048;18.472;2024-02-14T04:34:26;-2.16;81.70
79491;SHT31;73788;53.048;18.472;2024-02-14T04:36:54;-2.19;81.70
79491;SHT31;73788;53.048;18.472;2024-02-14T04:39:21;-2.21;81.72
79491;SHT31;73788;53.048;18.472;2024-02-14T04:41:48;-2.23;81.73
79491;SHT31;73788;53.048;18.472;2024-02-14T04:44:16;-2.24;81.79
79491;SHT31;73788;53.048;18.472;2024-02-14T04:46:43;-2.25;81.80
79491;SHT31;73788;53.048;18.472;2024-02-14T04:49:11;-2.28;81.80
79491;SHT31;73788;53.048;18.472;2024-02-14T04:51:38;-2.31;81.80
79491;SHT31;73788;53.048;18.472;2024-02-14T04:54:05;-2.34;81.84
79491;SHT31;73788;53.048;18.472;2024-02-14T04:56:32;-2.32;81.89
79491;SHT31;73788;53.048;18.472;2024-02-14T04:58:59;-2.32;81.90
79491;SHT31;73788;53.048;18.472;2024-02-14T05:01:26;-2.32;81.90
79491;SHT31;73788;53.048;18.472;2024-02-14T05:03:53;-2.32;81.91
79491;SHT31;73788;53.048;18.472;2024-02-14T05:06:21;-2.30;81.94
79491;SHT31;73788;53.048;18.472;2024-02-14T05:08:48;-2.27;81.98
79491;SHT31;73788;53.048;18.472;2024-02-14T05:11:17;-2.24;82.00
79491;SHT31;73788;53.048;18.472;2024-02-14T05:13:45;-2.23;82.00
79491;SHT31;73788;53.048;18.472;2024-02-14T05:16:13;-2.20;82.00
79491;SHT31;73788;53.048;18.472;2024-02-14T05:18:40;-2.18;82.01
79491;SHT31;73788;53.048;18.472;2024-02-14T05:21:07;-2.18;82.07
79491;SHT31;73788;53.048;18.472;2024-02-14T05:23:34;-2.20;82.09
79491;SHT31;73788;53.048;18.472;2024-02-14T05:26:05;-2.22;82.10
79491;SHT31;73788;53.048;18.472;2024-02-14T05:28:32;-2.25;82.10
79491;SHT31;73788;53.048;18.472;2024-02-14T05:30:59;-2.27;82.12
79491;SHT31;73788;53.048;18.472;2024-02-14T05:33:27;-2.31;82.11
79491;SHT31;73788;53.048;18.472;2024-02-14T05:35:55;-2.33;82.16
79491;SHT31;73788;53.048;18.472;2024-02-14T05:38:22;-2.34;82.20
79491;SHT31;73788;53.048;18.472;2024-02-14T05:40:50;-2.36;82.20
79491;SHT31;73788;53.048;18.472;2024-02-14T05:43:17;-2.38;82.20
79491;SHT31;73788;53.048;18.472;2024-02-14T05:45:44;-2.42;82.20
79491;SHT31;73788;53.048;18.472;2024-02-14T05:48:12;-2.45;82.21
79491;SHT31;73788;53.048;18.472;2024-02-14T05:50:41;-2.48;82.27
79491;SHT31;73788;53.048;18.472;2024-02-14T05:53:08;-2.50;82.30
79491;SHT31;73788;53.048;18.472;2024-02-14T05:55:35;-2.51;82.30
79491;SHT31;73788;53.048;18.472;2024-02-14T05:58:02;-2.53;82.30
79491;SHT31;73788;53.048;18.472;2024-02-14T06:00:29;-2.55;82.30
79491;SHT31;73788;53.048;18.472;2024-02-14T06:02:56;-2.53;82.33
79491;SHT31;73788;53.048;18.472;2024-02-14T06:05:23;-2.54;82.37
79491;SHT31;73788;53.048;18.472;2024-02-14T06:07:51;-2.54;82.40
79491;SHT31;73788;53.048;18.472;2024-02-14T06:10:18;-2.55;82.39
79491;SHT31;73788;53.048;18.472;2024-02-14T06:12:45;-2.55;82.40
79491;SHT31;73788;53.048;18.472;2024-02-14T06:15:14;-2.54;82.40
79491;SHT31;73788;53.048;18.472;2024-02-14T06:17:41;-2.53;82.42
79491;SHT31;73788;53.048;18.472;2024-02-14T06:20:08;-2.49;82.41
79491;SHT31;73788;53.048;18.472;2024-02-14T06:22:36;-2.47;82.48
79491;SHT31;73788;53.048;18.472;2024-02-14T06:25:03;-2.44;82.50
79491;SHT31;73788;53.048;18.472;2024-02-14T06:27:32;-2.41;82.50
79491;SHT31;73788;53.048;18.472;2024-02-14T06:29:59;-2.38;82.50
79491;SHT31;73788;53.048;18.472;2024-02-14T06:32:26;-2.34;82.51
79491;SHT31;73788;53.048;18.472;2024-02-14T06:34:53;-2.25;82.51
79491;SHT31;73788;53.048;18.472;2024-02-14T06:37:20;-2.09;82.57
79491;SHT31;73788;53.048;18.472;2024-02-14T06:39:47;-1.93;82.58
79491;SHT31;73788;53.048;18.472;2024-02-14T06:42:15;-1.75;82.60
79491;SHT31;73788;53.048;18.472;2024-02-14T06:44:43;-1.57;82.59
79491;SHT31;73788;53.048;18.472;2024-02-14T06:47:10;-1.37;82.62
79491;SHT31;73788;53.048;18.472;2024-02-14T06:49:38;-1.03;82.70
79491;SHT31;73788;53.048;18.472;2024-02-14T06:52:05;-0.73;82.75
79491;SHT31;73788;53.048;18.472;2024-02-14T06:54:32;-0.53;82.77
79491;SHT31;73788;53.048;18.472;2024-02-14T06:57:00;-0.47;82.80
79491;SHT31;73788;53.048;18.472;2024-02-14T06:59:27;-0.31;82.81
79491;SHT31;73788;53.048;18.472;2024-02-14T07:01:54;-0.08;82.90
79491;SHT31;73788;53.048;18.472;2024-02-14T07:04:21;0.21;82.94
79491;SHT31;73788;53.048;18.472;2024-02-14T07:06:53;0.51;83.00
79491;SHT31;73788;53.048;18.472;2024-02-14T07:09:20;0.81;83.03
79491;SHT31;73788;53.048;18.472;2024-02-14T07:11:47;1.05;83.09
79491;SHT31;73788;53.048;18.472;2024-02-14T07:14:14;1.28;83.12
79491;SHT31;73788;53.048;18.472;2024-02-14T07:16:41;1.54;83.16
79491;SHT31;73788;53.048;18.472;2024-02-14T07:19:08;1.90;83.22
79491;SHT31;73788;53.048;18.472;2024-02-14T07:21:35;2.16;83.30
79491;SHT31;73788;53.048;18.472;2024-02-14T07:24:04;2.32;83.30
79491;SHT31;73788;53.048;18.472;2024-02-14T07:26:32;2.53;83.37
79491;SHT31;73788;53.048;18.472;2024-02-14T07:28:59;2.78;83.40
79491;SHT31;73788;53.048;18.472;2024-02-14T07:31:28;2.99;83.45
79491;SHT31;73788;53.048;18.472;2024-02-14T07:34:00;3.21;83.50
79491;SHT31;73788;53.048;18.472;2024-02-14T07:36:29;3.40;83.51
79491;SHT31;73788;53.048;18.472;2024-02-14T07:38:58;3.60;83.59
79491;SHT31;73788;53.048;18.472;2024-02-14T07:41:25;3.72;83.60
79491;SHT31;73788;53.048;18.472;2024-02-14T07:43:53;3.92;83.63
79491;SHT31;73788;53.048;18.472;2024-02-14T07:46:20;4.13;83.70
79491;SHT31;73788;53.048;18.472;2024-02-14T07:48:48;4.28;83.70
79491;SHT31;73788;53.048;18.472;2024-02-14T07:51:15;4.32;83.71
79491;SHT31;73788;53.048;18.472;2024-02-14T07:53:42;4.33;83.75
79491;SHT31;73788;53.048;18.472;2024-02-14T07:56:09;4.39;83.79
79491;SHT31;73788;53.048;18.472;2024-02-14T07:58:36;4.43;83.80
79491;SHT31;73788;53.048;18.472;2024-02-14T08:01:04;4.44;83.80
79491;SHT31;73788;53.048;18.472;2024-02-14T08:03:31;4.43;83.81
79491;SHT31;73788;53.048;18.472;2024-02-14T08:05:58;4.45;83.82
79491;SHT31;73788;53.048;18.472;2024-02-14T08:08:27;4.51;83.88
79491;SHT31;73788;53.048;18.472;2024-02-14T08:10:54;4.63;83.90
79491;SHT31;73788;53.048;18.472;2024-02-14T08:13:21;4.58;83.90
79491;SHT31;73788;53.048;18.472;2024-02-14T08:15:49;4.57;83.90
79491;SHT31;73788;53.048;18.472;2024-02-14T08:18:16;4.70;83.91
79491;SHT31;73788;53.048;18.472;2024-02-14T08:20:43;4.73;83.92
79491;SHT31;73788;53.048;18.472;2024-02-14T08:23:10;4.70;83.97
79491;SHT31;73788;53.048;18.472;2024-02-14T08:25:38;4.72;83.99
79491;SHT31;73788;53.048;18.472;2024-02-14T08:28:05;4.72;83.96
79491;SHT31;73788;53.048;18.472;2024-02-14T08:30:34;4.80;84.00
79491;SHT31;73788;53.048;18.472;2024-02-14T08:33:01;4.91;84.00
79491;SHT31;73788;53.048;18.472;2024-02-14T08:35:28;5.03;84.00
79491;SHT31;73788;53.048;18.472;2024-02-14T08:37:55;5.23;84.07
79491;SHT31;73788;53.048;18.472;2024-02-14T08:40:22;5.47;84.07
79491;SHT31;73788;53.048;18.472;2024-02-14T08:42:49;5.69;84.10
79491;SHT31;73788;53.048;18.472;2024-02-14T08:45:17;5.92;84.10
79491;SHT31;73788;53.048;18.472;2024-02-14T08:47:44;6.15;84.14
79491;SHT31;73788;53.048;18.472;2024-02-14T08:50:11;6.41;84.19
79491;SHT31;73788;53.048;18.472;2024-02-14T08:52:38;6.53;84.19
79491;SHT31;73788;53.048;18.472;2024-02-14T08:55:06;6.51;84.20
79491;SHT31;73788;53.048;18.472;2024-02-14T08:57:40;6.37;84.17
79491;SHT31;73788;53.048;18.472;2024-02-14T09:00:08;6.26;84.16
79491;SHT31;73788;53.048;18.472;2024-02-14T09:02:37;6.21;84.15
79491;SHT31;73788;53.048;18.472;2024-02-14T09:05:04;6.18;84.15
79491;SHT31;73788;53.048;18.472;2024-02-14T09:07:32;6.19;84.11
79491;SHT31;73788;53.048;18.472;2024-02-14T09:10:00;6.28;84.13
79491;SHT31;73788;53.048;18.472;2024-02-14T09:12:27;6.36;84.12
79491;SHT31;73788;53.048;18.472;2024-02-14T09:14:54;6.40;84.14
79491;SHT31;73788;53.048;18.472;2024-02-14T09:17:23;6.47;84.13
79491;SHT31;73788;53.048;18.472;2024-02-14T09:19:50;6.59;84.11
79491;SHT31;73788;53.048;18.472;2024-02-14T09:22:18;6.73;84.15
79491;SHT31;73788;53.048;18.472;2024-02-14T09:24:48;6.96;84.15
79491;SHT31;73788;53.048;18.472;2024-02-14T09:27:16;7.12;84.12
79491;SHT31;73788;53.048;18.472;2024-02-14T09:29:43;7.16;84.11
79491;SHT31;73788;53.048;18.472;2024-02-14T09:32:10;7.29;84.13
79491;SHT31;73788;53.048;18.472;2024-02-14T09:34:38;7.51;84.15
79491;SHT31;73788;53.048;18.472;2024-02-14T09:37:05;7.73;84.13
79491;SHT31;73788;53.048;18.472;2024-02-14T09:39:33;8.11;84.18
79491;SHT31;73788;53.048;18.472;2024-02-14T09:42:04;8.28;84.12
79491;SHT31;73788;53.048;18.472;2024-02-14T09:44:36;8.49;84.12
79491;SHT31;73788;53.048;18.472;2024-02-14T09:47:05;8.80;84.11
79491;SHT31;73788;53.048;18.472;2024-02-14T09:49:34;9.11;84.12
79491;SHT31;73788;53.048;18.472;2024-02-14T09:52:03;9.49;84.10
79491;SHT31;73788;53.048;18.472;2024-02-14T09:54:33;9.60;84.10
79491;SHT31;73788;53.048;18.472;2024-02-14T09:57:01;9.72;84.09
79491;SHT31;73788;53.048;18.472;2024-02-14T09:59:29;10.00;84.04
79491;SHT31;73788;53.048;18.472;2024-02-14T10:01:57;10.06;84.00
79491;SHT31;73788;53.048;18.472;2024-02-14T10:04:25;10.11;83.97
79491;SHT31;73788;53.048;18.472;2024-02-14T10:06:52;10.32;83.92
79491;SHT31;73788;53.048;18.472;2024-02-14T10:09:23;10.80;83.90
79491;SHT31;73788;53.048;18.472;2024-02-14T10:11:52;11.17;83.87
79491;SHT31;73788;53.048;18.472;2024-02-14T10:14:19;11.09;83.80
79491;SHT31;73788;53.048;18.472;2024-02-14T10:16:46;11.03;83.72
79491;SHT31;73788;53.048;18.472;2024-02-14T10:19:18;11.00;83.65
79491;SHT31;73788;53.048;18.472;2024-02-14T10:21:58;10.97;83.60
79491;SHT31;73788;53.048;18.472;2024-02-14T10:24:32;10.78;83.50
79491;SHT31;73788;53.048;18.472;2024-02-14T10:26:59;10.56;83.38
79491;SHT31;73788;53.048;18.472;2024-02-14T10:29:27;10.24;83.31
79491;SHT31;73788;53.048;18.472;2024-02-14T10:31:54;10.25;83.22
79491;SHT31;73788;53.048;18.472;2024-02-14T10:34:24;10.32;83.16
79491;SHT31;73788;53.048;18.472;2024-02-14T10:36:53;10.54;83.07
79491;SHT31;73788;53.048;18.472;2024-02-14T10:39:25;10.73;83.00
79491;SHT31;73788;53.048;18.472;2024-02-14T10:41:53;11.13;82.95
79491;SHT31;73788;53.048;18.472;2024-02-14T10:44:21;11.48;82.87
79491;SHT31;73788;53.048;18.472;2024-02-14T10:46:48;11.73;82.79
79491;SHT31;73788;53.048;18.472;2024-02-14T10:49:22;11.86;82.67
79491;SHT31;73788;53.048;18.472;2024-02-14T10:51:56;11.68;82.57
79491;SHT31;73788;53.048;18.472;2024-02-14T10:54:30;11.38;82.40
79491;SHT31;73788;53.048;18.472;2024-02-14T10:56:58;11.09;82.29
79491;SHT31;73788;53.048;18.472;2024-02-14T10:59:30;11.13;82.21
79491;SHT31;73788;53.048;18.472;2024-02-14T11:01:59;11.29;82.07
79491;SHT31;73788;53.048;18.472;2024-02-14T11:04:26;11.72;82.00
79491;SHT31;73788;53.048;18.472;2024-02-14T11:06:55;12.11;81.90
79491;SHT31;73788;53.048;18.472;2024-02-14T11:09:31;11.95;81.77
79491;SHT31;73788;53.048;18.472;2024-02-14T11:12:07;11.71;81.57
79491;SHT31;73788;53.048;18.472;2024-02-14T11:14:36;11.10;81.39
79491;SHT31;73788;53.048;18.472;2024-02-14T11:17:12;10.65;81.23
79491;SHT31;73788;53.048;18.472;2024-02-14T11:19:39;10.45;81.10
79491;SHT31;73788;53.048;18.472;2024-02-14T11:22:13;10.52;81.00
79491;SHT31;73788;53.048;18.472;2024-02-14T11:24:45;10.70;80.88
79491;SHT31;73788;53.048;18.472;2024-02-14T11:27:13;10.87;80.76
79491;SHT31;73788;53.048;18.472;2024-02-14T11:29:53;10.98;80.64
79491;SHT31;73788;53.048;18.472;2024-02-14T11:32:21;10.95;80.47
79491;SHT31;73788;53.048;18.472;2024-02-14T11:34:55;10.83;80.31
79491;SHT31;73788;53.048;18.472;2024-02-14T11:37:30;10.82;80.20
79491;SHT31;73788;53.048;18.472;2024-02-14T11:40:01;10.90;80.06
79491;SHT31;73788;53.048;18.472;2024-02-14T11:42:28;10.71;79.89
79491;SHT31;73788;53.048;18.472;2024-02-14T11:44:57;10.61;79.76
79491;SHT31;73788;53.048;18.472;2024-02-14T11:47:24;10.74;79.65
79491;SHT31;73788;53.048;18.472;2024-02-14T11:49:51;10.78;79.50
79491;SHT31;73788;53.048;18.472;2024-02-14T11:52:18;10.72;79.36
79491;SHT31;73788;53.048;18.472;2024-02-14T11:54:46;10.61;79.23
79491;SHT31;73788;53.048;18.472;2024-02-14T11:57:17;10.63;79.10
79491;SHT31;73788;53.048;18.472;2024-02-14T11:59:50;10.75;78.99
79491;SHT31;73788;53.048;18.472;2024-02-14T12:02:20;10.88;78.85
79491;SHT31;73788;53.048;18.472;2024-02-14T12:04:47;10.86;78.72
79491;SHT31;73788;53.048;18.472;2024-02-14T12:07:16;10.90;78.59
79491;SHT31;73788;53.048;18.472;2024-02-14T12:09:44;11.14;78.47
79491;SHT31;73788;53.048;18.472;2024-02-14T12:12:12;11.30;78.34
79491;SHT31;73788;53.048;18.472;2024-02-14T12:14:39;11.22;78.19
79491;SHT31;73788;53.048;18.472;2024-02-14T12:17:06;10.91;78.04
79491;SHT31;73788;53.048;18.472;2024-02-14T12:19:33;10.62;77.86
79491;SHT31;73788;53.048;18.472;2024-02-14T12:22:01;10.50;77.77
79491;SHT31;73788;53.048;18.472;2024-02-14T12:24:29;10.32;77.61
79491;SHT31;73788;53.048;18.472;2024-02-14T12:26:56;10.23;77.49
79491;SHT31;73788;53.048;18.472;2024-02-14T12:29:24;10.15;77.36
79491;SHT31;73788;53.048;18.472;2024-02-14T12:32:02;10.15;77.25
79491;SHT31;73788;53.048;18.472;2024-02-14T12:34:32;10.31;77.15
79491;SHT31;73788;53.048;18.472;2024-02-14T12:37:00;10.32;77.02
79491;SHT31;73788;53.048;18.472;2024-02-14T12:39:27;10.38;76.93
79491;SHT31;73788;53.048;18.472;2024-02-14T12:41:54;10.48;76.80
79491;SHT31;73788;53.048;18.472;2024-02-14T12:44:21;10.52;76.68
79491;SHT31;73788;53.048;18.472;2024-02-14T12:46:48;10.43;76.57
79491;SHT31;73788;53.048;18.472;2024-02-14T12:49:15;10.30;76.43
79491;SHT31;73788;53.048;18.472;2024-02-14T12:51:43;10.27;76.30
79491;SHT31;73788;53.048;18.472;2024-02-14T12:54:11;10.35;76.20
79491;SHT31;73788;53.048;18.472;2024-02-14T12:56:40;10.39;76.07
79491;SHT31;73788;53.048;18.472;2024-02-14T12:59:08;10.26;75.94
79491;SHT31;73788;53.048;18.472;2024-02-14T13:01:41;10.14;75.83
79491;SHT31;73788;53.048;18.472;2024-02-14T13:04:09;10.02;75.71
79491;SHT31;73788;53.048;18.472;2024-02-14T13:06:37;9.95;75.61
79491;SHT31;73788;53.048;18.472;2024-02-14T13:09:04;9.88;75.48
79491;SHT31;73788;53.048;18.472;2024-02-14T13:11:34;9.85;75.38
79491;SHT31;73788;53.048;18.472;2024-02-14T13:14:01;9.81;75.25
79491;SHT31;73788;53.048;18.472;2024-02-14T13:16:30;9.80;75.18
79491;SHT31;73788;53.048;18.472;2024-02-14T13:18:57;9.85;75.08
79491;SHT31;73788;53.048;18.472;2024-02-14T13:21:24;9.76;74.96
79491;SHT31;73788;53.048;18.472;2024-02-14T13:23:51;9.72;74.88
79491;SHT31;73788;53.048;18.472;2024-02-14T13:26:19;9.68;74.76
79491;SHT31;73788;53.048;18.472;2024-02-14T13:28:46;9.54;74.63
79491;SHT31;73788;53.048;18.472;2024-02-14T13:31:13;9.50;74.57
79491;SHT31;73788;53.048;18.472;2024-02-14T13:33:40;9.44;74.45
79491;SHT31;73788;53.048;18.472;2024-02-14T13:36:08;9.35;74.34
79491;SHT31;73788;53.048;18.472;2024-02-14T13:38:35;9.28;74.27
79491;SHT31;73788;53.048;18.472;2024-02-14T13:41:02;9.23;74.16
79491;SHT31;73788;53.048;18.472;2024-02-14T13:43:29;9.17;74.09
79491;SHT31;73788;53.048;18.472;2024-02-14T13:45:56;9.10;73.99
79491;SHT31;73788;53.048;18.472;2024-02-14T13:48:24;9.06;73.89
79491;SHT31;73788;53.048;18.472;2024-02-14T13:50:51;9.06;73.80
79491;SHT31;73788;53.048;18.472;2024-02-14T13:53:18;9.07;73.73
79491;SHT31;73788;53.048;18.472;2024-02-14T13:55:45;9.10;73.64
79491;SHT31;73788;53.048;18.472;2024-02-14T13:58:13;9.12;73.57
79491;SHT31;73788;53.048;18.472;2024-02-14T14:00:43;9.14;73.51
79491;SHT31;73788;53.048;18.472;2024-02-14T14:03:10;9.10;73.40
79491;SHT31;73788;53.048;18.472;2024-02-14T14:05:38;9.04;73.31
79491;SHT31;73788;53.048;18.472;2024-02-14T14:08:05;9.04;73.28
79491;SHT31;73788;53.048;18.472;2024-02-14T14:10:32;9.05;73.20
79491;SHT31;73788;53.048;18.472;2024-02-14T14:13:00;9.01;73.11
79491;SHT31;73788;53.048;18.472;2024-02-14T14:15:27;9.00;73.05
79491;SHT31;73788;53.048;18.472;2024-02-14T14:17:55;8.98;72.98
79491;SHT31;73788;53.048;18.472;2024-02-14T14:20:23;8.97;72.90
79491;SHT31;73788;53.048;18.472;2024-02-14T14:22:51;8.94;72.82
79491;SHT31;73788;53.048;18.472;2024-02-14T14:25:18;8.89;72.79
79491;SHT31;73788;53.048;18.472;2024-02-14T14:27:45;8.85;72.71
79491;SHT31;73788;53.048;18.472;2024-02-14T14:30:12;8.78;72.62
79491;SHT31;73788;53.048;18.472;2024-02-14T14:32:40;8.72;72.58
79491;SHT31;73788;53.048;18.472;2024-02-14T14:35:07;8.67;72.50
79491;SHT31;73788;53.048;18.472;2024-02-14T14:37:36;8.62;72.43
79491;SHT31;73788;53.048;18.472;2024-02-14T14:40:04;8.61;72.39
79491;SHT31;73788;53.048;18.472;2024-02-14T14:42:32;8.58;72.33
79491;SHT31;73788;53.048;18.472;2024-02-14T14:44:59;8.53;72.29
79491;SHT31;73788;53.048;18.472;2024-02-14T14:47:26;8.49;72.20
79491;SHT31;73788;53.048;18.472;2024-02-14T14:49:53;8.48;72.20
79491;SHT31;73788;53.048;18.472;2024-02-14T14:52:20;8.44;72.10
79491;SHT31;73788;53.048;18.472;2024-02-14T14:54:48;8.42;72.08
79491;SHT31;73788;53.048;18.472;2024-02-14T14:57:15;8.39;72.00
79491;SHT31;73788;53.048;18.472;2024-02-14T14:59:42;8.36;71.98
79491;SHT31;73788;53.048;18.472;2024-02-14T15:02:10;8.32;71.90
79491;SHT31;73788;53.048;18.472;2024-02-14T15:04:37;8.29;71.88
79491;SHT31;73788;53.048;18.472;2024-02-14T15:07:06;8.26;71.82
79491;SHT31;73788;53.048;18.472;2024-02-14T15:09:33;8.27;71.80
79491;SHT31;73788;53.048;18.472;2024-02-14T15:12:00;8.23;71.73
79491;SHT31;73788;53.048;18.472;2024-02-14T15:14:28;8.21;71.70
79491;SHT31;73788;53.048;18.472;2024-02-14T15:16:55;8.18;71.66
79491;SHT31;73788;53.048;18.472;2024-02-14T15:19:22;8.14;71.61
79491;SHT31;73788;53.048;18.472;2024-02-14T15:21:50;8.09;71.57
79491;SHT31;73788;53.048;18.472;2024-02-14T15:24:17;8.06;71.54
79491;SHT31;73788;53.048;18.472;2024-02-14T15:26:45;8.03;71.50